Time;durP1;ratioP1;P1;durP2;ratioP2;P2;SDS_P1;SDS_P2;PMS_P1;PMS_P2;Temp;Humidity;BMP_temperature;BMP_pressure;BME280_temperature;BME280_humidity;BME280_pressure;Samples;Min_cycle;Max_cycle;Signal;HPM_P1;HPM_P2
2022/07/20 00:04:03;;;;;;;6.30;5.70;;;;;;;;;;10429472;28;20060;-76
2022/07/20 00:14:23;;;;;;;6.97;6.03;;;;;;;;;;10423312;28;20118;-77
2022/07/20 00:19:23;;;;;;;8.10;6.15;;;;;;;;;;10435912;28;20049;-76
2022/07/20 00:24:24;;;;;;;7.55;6.25;;;;;;;;;;10416631;28;20053;-75
2022/07/20 00:29:24;;;;;;;6.60;5.88;;;;;;;;;;10422450;28;20040;-76
2022/07/20 00:34:24;;;;;;;6.97;6.10;;;;;;;;;;10409117;28;20142;-75
2022/07/20 00:39:25;;;;;;;7.20;6.50;;;;;;;;;;10435094;28;20107;-74
2022/07/20 00:44:25;;;;;;;6.10;5.50;;;;;;;;;;10444794;28;20077;-74
2022/07/20 00:49:25;;;;;;;6.13;5.60;;;;;;;;;;10443464;28;20528;-76
2022/07/20 00:54:26;;;;;;;6.73;6.00;;;;;;;;;;10410578;28;20272;-76
2022/07/20 00:59:26;;;;;;;6.32;5.70;;;;;;;;;;10410250;28;20268;-77
2022/07/20 01:04:27;;;;;;;6.90;6.20;;;;;;;;;;10440910;28;20084;-80
2022/07/20 01:09:27;;;;;;;6.68;5.95;;;;;;;;;;10456633;28;20045;-78
2022/07/20 01:14:28;;;;;;;6.82;6.13;;;;;;;;;;10458414;28;20057;-77
2022/07/20 01:19:28;;;;;;;6.40;5.80;;;;;;;;;;10415632;28;20074;-77
2022/07/20 01:24:29;;;;;;;7.75;5.95;;;;;;;;;;10413000;28;20272;-76
2022/07/20 01:29:29;;;;;;;6.53;5.90;;;;;;;;;;10411700;28;20037;-78
2022/07/20 01:34:29;;;;;;;6.50;5.90;;;;;;;;;;10421608;28;20772;-76
2022/07/20 01:39:31;;;;;;;9.13;6.00;;;;;;;;;;10442849;28;20359;-75
2022/07/20 01:44:32;;;;;;;6.63;5.87;;;;;;;;;;10432837;28;20078;-76
2022/07/20 01:49:32;;;;;;;6.20;5.60;;;;;;;;;;10423194;28;20805;-77
2022/07/20 01:54:32;;;;;;;7.20;6.50;;;;;;;;;;10414152;28;20049;-78
2022/07/20 01:59:33;;;;;;;6.97;6.20;;;;;;;;;;10398547;28;20758;-78
2022/07/20 02:04:33;;;;;;;7.93;6.50;;;;;;;;;;10420020;28;20045;-78
2022/07/20 02:09:33;;;;;;;7.23;6.53;;;;;;;;;;10420065;28;20057;-77
2022/07/20 02:14:34;;;;;;;6.87;6.17;;;;;;;;;;10407648;28;20919;-78
2022/07/20 02:19:34;;;;;;;6.78;6.15;;;;;;;;;;10409247;28;20268;-78
2022/07/20 02:24:35;;;;;;;7.32;6.55;;;;;;;;;;10422342;28;20060;-77
2022/07/20 02:29:35;;;;;;;7.47;6.37;;;;;;;;;;10407315;28;20041;-77
2022/07/20 02:34:37;;;;;;;7.90;6.47;;;;;;;;;;10417425;28;20375;-79
2022/07/20 02:39:37;;;;;;;7.43;6.73;;;;;;;;;;10410410;28;20287;-76
2022/07/20 02:44:38;;;;;;;7.60;6.78;;;;;;;;;;10413553;28;20054;-78
2022/07/20 02:49:38;;;;;;;6.90;6.07;;;;;;;;;;10406628;28;20045;-78
2022/07/20 02:54:39;;;;;;;7.87;7.07;;;;;;;;;;10393084;28;20163;-77
2022/07/20 02:59:40;;;;;;;7.88;6.93;;;;;;;;;;10408526;28;20049;-77
2022/07/20 03:04:41;;;;;;;8.02;6.53;;;;;;;;;;10408356;28;20049;-78
2022/07/20 03:09:42;;;;;;;7.17;6.47;;;;;;;;;;10415146;28;20041;-80
2022/07/20 03:14:42;;;;;;;9.32;7.65;;;;;;;;;;10410287;28;20073;-78
2022/07/20 03:19:44;;;;;;;7.27;6.63;;;;;;;;;;10405708;28;20062;-78
2022/07/20 03:24:44;;;;;;;6.63;6.03;;;;;;;;;;10402646;28;20387;-78
2022/07/20 03:29:45;;;;;;;9.23;7.15;;;;;;;;;;10406630;28;20543;-76
2022/07/20 03:34:46;;;;;;;9.33;6.70;;;;;;;;;;10418126;28;20200;-77
2022/07/20 03:39:49;;;;;;;9.73;7.20;;;;;;;;;;10405758;28;20103;-76
2022/07/20 03:44:50;;;;;;;8.33;6.77;;;;;;;;;;10406450;28;20777;-76
2022/07/20 03:49:51;;;;;;;8.88;6.43;;;;;;;;;;10403948;28;20268;-77
2022/07/20 03:54:52;;;;;;;7.95;6.93;;;;;;;;;;10412927;28;20053;-76
2022/07/20 03:59:52;;;;;;;8.90;7.27;;;;;;;;;;10423932;28;20046;-77
2022/07/20 04:04:52;;;;;;;8.40;7.47;;;;;;;;;;10415326;28;20272;-77
2022/07/20 04:09:53;;;;;;;8.52;7.63;;;;;;;;;;10431644;28;20287;-77
2022/07/20 04:14:53;;;;;;;9.18;7.40;;;;;;;;;;10421530;28;20089;-77
2022/07/20 04:19:54;;;;;;;10.07;7.53;;;;;;;;;;10426848;28;20111;-76
2022/07/20 04:24:54;;;;;;;7.72;7.03;;;;;;;;;;10414403;28;20056;-76
2022/07/20 04:29:55;;;;;;;7.40;6.60;;;;;;;;;;10421221;28;20095;-77
2022/07/20 04:34:55;;;;;;;8.80;7.90;;;;;;;;;;10422710;28;20285;-77
2022/07/20 04:39:56;;;;;;;8.07;7.00;;;;;;;;;;10420213;28;20990;-78
2022/07/20 04:44:56;;;;;;;8.00;6.63;;;;;;;;;;10405526;28;20057;-77
2022/07/20 04:49:57;;;;;;;9.97;8.23;;;;;;;;;;10412485;28;20056;-78
2022/07/20 04:54:58;;;;;;;8.20;7.50;;;;;;;;;;10409683;28;20345;-74
2022/07/20 04:59:58;;;;;;;8.13;6.43;;;;;;;;;;10409807;28;20050;-73
2022/07/20 05:04:58;;;;;;;9.37;6.90;;;;;;;;;;10409165;28;20076;-71
2022/07/20 05:09:59;;;;;;;7.20;6.60;;;;;;;;;;10398728;28;20049;-70
2022/07/20 05:14:59;;;;;;;10.07;7.07;;;;;;;;;;10409345;28;20067;-71
2022/07/20 05:20:00;;;;;;;6.63;5.93;;;;;;;;;;10409201;28;20053;-71
2022/07/20 05:25:02;;;;;;;8.97;6.80;;;;;;;;;;10408422;28;20045;-71
2022/07/20 05:30:03;;;;;;;8.57;5.97;;;;;;;;;;10405734;28;20280;-71
2022/07/20 05:35:04;;;;;;;8.10;7.15;;;;;;;;;;10406409;28;20117;-71
2022/07/20 05:40:05;;;;;;;10.75;6.75;;;;;;;;;;10407353;28;20094;-72
2022/07/20 05:45:05;;;;;;;6.22;5.63;;;;;;;;;;10412356;28;20191;-70
2022/07/20 05:50:06;;;;;;;9.20;7.90;;;;;;;;;;10408333;28;20103;-70
2022/07/20 05:55:07;;;;;;;11.40;9.50;;;;;;;;;;10408115;28;20049;-70
2022/07/20 06:00:08;;;;;;;7.65;6.53;;;;;;;;;;10412094;28;20061;-71
2022/07/20 06:05:09;;;;;;;6.82;6.07;;;;;;;;;;10406571;28;20356;-70
2022/07/20 06:10:10;;;;;;;7.78;6.68;;;;;;;;;;10399131;28;20049;-70
2022/07/20 06:15:10;;;;;;;8.65;6.18;;;;;;;;;;10416854;28;20767;-71
2022/07/20 06:20:12;;;;;;;6.77;5.77;;;;;;;;;;10400204;28;20046;-71
2022/07/20 06:25:13;;;;;;;7.43;5.47;;;;;;;;;;10404065;28;20274;-70
2022/07/20 06:30:14;;;;;;;8.05;5.85;;;;;;;;;;10400457;28;20112;-71
2022/07/20 06:35:14;;;;;;;5.57;4.82;;;;;;;;;;10403445;28;20522;-71
2022/07/20 06:40:15;;;;;;;6.40;4.80;;;;;;;;;;10397344;28;20127;-71
2022/07/20 06:45:15;;;;;;;7.28;5.50;;;;;;;;;;10410778;28;20635;-72
2022/07/20 06:50:15;;;;;;;5.43;4.93;;;;;;;;;;10412940;28;20573;-73
2022/07/20 06:55:16;;;;;;;6.77;5.50;;;;;;;;;;10403966;28;20515;-74
2022/07/20 07:00:16;;;;;;;6.40;4.87;;;;;;;;;;10408854;28;20540;-70
2022/07/20 07:05:17;;;;;;;5.88;4.90;;;;;;;;;;10400524;28;20362;-71
2022/07/20 07:10:17;;;;;;;7.03;5.43;;;;;;;;;;10406143;28;20512;-71
2022/07/20 07:15:17;;;;;;;6.82;4.75;;;;;;;;;;10407358;28;20480;-70
2022/07/20 07:20:19;;;;;;;7.63;4.80;;;;;;;;;;10415733;28;20045;-72
2022/07/20 07:25:19;;;;;;;6.45;5.03;;;;;;;;;;10404734;28;20049;-71
2022/07/20 07:30:20;;;;;;;5.73;4.93;;;;;;;;;;10409640;28;20058;-71
2022/07/20 07:35:20;;;;;;;14.87;6.00;;;;;;;;;;10399702;28;20356;-71
2022/07/20 07:40:20;;;;;;;6.70;5.13;;;;;;;;;;10408186;28;20049;-71
2022/07/20 07:45:21;;;;;;;6.07;5.03;;;;;;;;;;10407310;28;20049;-71
2022/07/20 07:50:21;;;;;;;5.57;3.90;;;;;;;;;;10408313;28;20168;-71
2022/07/20 07:55:22;;;;;;;5.13;3.97;;;;;;;;;;10414140;28;20053;-71
2022/07/20 08:00:22;;;;;;;5.30;4.07;;;;;;;;;;10410585;28;20049;-70
2022/07/20 08:05:22;;;;;;;5.13;4.03;;;;;;;;;;10410474;28;20045;-71
2022/07/20 08:10:23;;;;;;;4.03;3.63;;;;;;;;;;10409902;28;20057;-71
2022/07/20 08:15:23;;;;;;;4.10;3.67;;;;;;;;;;10411745;28;20065;-74
2022/07/20 08:20:24;;;;;;;4.80;4.10;;;;;;;;;;10408663;28;20049;-77
2022/07/20 08:25:24;;;;;;;5.03;3.97;;;;;;;;;;10410581;28;20045;-76
2022/07/20 08:30:25;;;;;;;6.07;4.27;;;;;;;;;;10411089;28;20132;-74
2022/07/20 08:35:25;;;;;;;5.20;4.70;;;;;;;;;;10417425;28;20049;-75
2022/07/20 08:40:26;;;;;;;4.87;3.87;;;;;;;;;;10417039;28;20116;-78
2022/07/20 08:45:28;;;;;;;8.20;7.13;;;;;;;;;;10413232;28;20037;-74
2022/07/20 08:50:29;;;;;;;4.65;4.10;;;;;;;;;;10429696;28;20056;-75
2022/07/20 08:55:30;;;;;;;6.90;3.95;;;;;;;;;;10437544;28;20191;-75
2022/07/20 09:00:30;;;;;;;3.57;3.27;;;;;;;;;;10415469;28;20049;-75
2022/07/20 09:05:32;;;;;;;7.33;4.27;;;;;;;;;;10423510;28;20100;-75
2022/07/20 09:10:34;;;;;;;4.63;3.75;;;;;;;;;;10407369;28;20165;-77
2022/07/20 09:15:36;;;;;;;4.07;3.67;;;;;;;;;;10420438;28;20063;-75
2022/07/20 09:20:40;;;;;;;5.05;3.78;;;;;;;;;;10432940;28;20041;-75
2022/07/20 09:25:51;;;;;;;4.28;3.60;;;;;;;;;;10434452;28;20117;-74
2022/07/20 09:30:55;;;;;;;4.73;3.57;;;;;;;;;;10412284;28;20072;-75
2022/07/20 09:35:57;;;;;;;3.78;3.42;;;;;;;;;;10405512;28;20052;-75
2022/07/20 09:40:58;;;;;;;4.03;3.17;;;;;;;;;;10422979;28;20136;-77
2022/07/20 09:45:58;;;;;;;;;;;;;;;;;;10421924;28;20113;-75
2022/07/20 09:50:58;;;;;;;5.17;3.90;;;;;;;;;;10425523;28;19917;-77
2022/07/20 09:55:58;;;;;;;;;;;;;;;;;;10424314;28;20144;-76
2022/07/20 10:01:00;;;;;;;3.92;3.50;;;;;;;;;;10427878;28;20286;-77
2022/07/20 10:06:01;;;;;;;5.20;3.83;;;;;;;;;;10414892;28;20053;-76
2022/07/20 10:11:01;;;;;;;4.20;3.80;;;;;;;;;;10436398;28;20451;-77
2022/07/20 10:16:03;;;;;;;4.20;3.40;;;;;;;;;;10411152;28;20054;-76
2022/07/20 10:21:22;;;;;;;6.25;3.60;;;;;;;;;;10405672;28;20095;-77
2022/07/20 10:26:24;;;;;;;5.10;3.67;;;;;;;;;;10415930;28;20049;-77
2022/07/20 10:31:25;;;;;;;5.35;3.53;;;;;;;;;;10406372;28;20049;-76
2022/07/20 10:36:44;;;;;;;3.85;3.55;;;;;;;;;;10403534;28;20053;-76
2022/07/20 10:42:05;;;;;;;5.00;3.70;;;;;;;;;;10411084;28;20223;-76
2022/07/20 10:47:26;;;;;;;4.35;3.90;;;;;;;;;;10405223;28;20057;-77
2022/07/20 10:52:28;;;;;;;6.82;3.80;;;;;;;;;;10412367;28;20054;-76
2022/07/20 10:57:31;;;;;;;4.90;3.92;;;;;;;;;;10409216;28;20053;-76
2022/07/20 11:02:32;;;;;;;4.68;3.85;;;;;;;;;;10415564;28;20056;-76
2022/07/20 11:07:34;;;;;;;11.80;10.60;;;;;;;;;;10389203;28;20053;-76
2022/07/20 11:12:35;;;;;;;4.20;3.80;;;;;;;;;;10400389;28;20049;-76
2022/07/20 11:17:35;;;;;;;4.13;3.73;;;;;;;;;;10409389;28;20061;-77
2022/07/20 11:22:36;;;;;;;5.90;4.18;;;;;;;;;;10409585;28;20045;-76
2022/07/20 11:27:37;;;;;;;4.88;3.95;;;;;;;;;;10405159;28;20049;-76
2022/07/20 11:32:50;;;;;;;5.00;4.10;;;;;;;;;;10429987;28;20046;-78
2022/07/20 11:37:52;;;;;;;4.15;3.80;;;;;;;;;;10407978;28;20152;-77
2022/07/20 11:43:09;;;;;;;4.10;3.47;;;;;;;;;;10415576;28;20060;-77
2022/07/20 11:48:20;;;;;;;4.35;3.95;;;;;;;;;;10407789;28;20095;-77
2022/07/20 11:53:23;;;;;;;4.57;3.95;;;;;;;;;;10423872;28;20042;-77
2022/07/20 11:58:25;;;;;;;5.82;4.03;;;;;;;;;;10406183;28;26113;-77
2022/07/20 12:03:29;;;;;;;5.25;4.00;;;;;;;;;;10406909;28;20045;-77
2022/07/20 12:08:29;;;;;;;7.78;4.30;;;;;;;;;;10406297;28;20140;-75
2022/07/20 12:13:30;;;;;;;5.43;3.97;;;;;;;;;;10412751;28;20681;-79
2022/07/20 12:18:34;;;;;;;4.97;3.70;;;;;;;;;;10411328;28;20052;-78
2022/07/20 12:23:35;;;;;;;4.28;3.67;;;;;;;;;;10418075;28;20673;-78
2022/07/20 12:29:25;;;;;;;4.78;3.75;;;;;;;;;;10418564;28;20041;-76
2022/07/20 12:34:59;;;;;;;7.43;4.00;;;;;;;;;;10420427;28;20053;-79
2022/07/20 12:40:42;;;;;;;4.38;3.97;;;;;;;;;;10417638;28;20041;-77
2022/07/20 12:45:42;;;;;;;4.85;3.65;;;;;;;;;;10426917;28;20072;-76
2022/07/20 12:50:44;;;;;;;6.10;4.10;;;;;;;;;;10413687;28;20120;-78
2022/07/20 12:55:45;;;;;;;4.33;3.93;;;;;;;;;;10412452;28;20060;-80
2022/07/20 13:01:18;;;;;;;4.20;3.90;;;;;;;;;;10430945;28;20038;-79
2022/07/20 13:06:51;;;;;;;4.38;3.95;;;;;;;;;;10442679;28;20045;-79
2022/07/20 13:12:25;;;;;;;5.05;4.43;;;;;;;;;;10439590;28;20109;-77
2022/07/20 13:17:25;;;;;;;4.20;3.78;;;;;;;;;;10441444;28;20057;-79
2022/07/20 13:22:26;;;;;;;5.32;3.92;;;;;;;;;;10431108;28;20119;-80
2022/07/20 13:27:26;;;;;;;5.10;3.78;;;;;;;;;;10428273;28;20047;-82
2022/07/20 13:32:28;;;;;;;4.53;4.10;;;;;;;;;;10417585;28;20045;-79
2022/07/20 13:37:28;;;;;;;5.67;4.03;;;;;;;;;;10429399;28;20049;-77
2022/07/20 13:42:29;;;;;;;3.88;3.58;;;;;;;;;;10435821;28;20060;-78
2022/07/20 13:47:29;;;;;;;5.33;4.40;;;;;;;;;;10457117;28;20053;-81
2022/07/20 13:52:30;;;;;;;7.07;4.43;;;;;;;;;;10454834;28;20050;-82
2022/07/20 13:57:31;;;;;;;6.45;3.78;;;;;;;;;;10424479;28;20068;-83
2022/07/20 14:02:32;;;;;;;5.20;4.00;;;;;;;;;;10433065;28;20052;-81
2022/07/20 14:08:06;;;;;;;4.13;3.72;;;;;;;;;;10419147;28;20163;-79
2022/07/20 14:13:39;;;;;;;4.22;3.70;;;;;;;;;;10432463;28;20053;-78
2022/07/20 14:18:39;;;;;;;4.47;3.40;;;;;;;;;;10431006;28;20052;-79
2022/07/20 14:23:39;;;;;;;5.47;3.83;;;;;;;;;;10421533;28;20057;-80
2022/07/20 14:28:43;;;;;;;5.53;3.55;;;;;;;;;;10420534;28;20712;-81
2022/07/20 14:33:43;;;;;;;4.38;3.72;;;;;;;;;;10424185;28;20052;-79
2022/07/20 14:38:44;;;;;;;4.57;3.30;;;;;;;;;;10429057;28;20051;-78
2022/07/20 14:43:44;;;;;;;4.83;3.50;;;;;;;;;;10420786;28;20120;-80
2022/07/20 14:48:45;;;;;;;3.40;3.10;;;;;;;;;;10410029;28;20049;-78
2022/07/20 14:53:45;;;;;;;4.50;3.00;;;;;;;;;;10414035;28;20080;-78
2022/07/20 14:58:46;;;;;;;3.58;3.10;;;;;;;;;;10421673;28;20056;-79
2022/07/20 15:03:46;;;;;;;3.17;2.97;;;;;;;;;;10434668;28;20133;-80
2022/07/20 15:08:46;;;;;;;9.60;8.70;;;;;;;;;;10403954;28;20075;-78
2022/07/20 15:13:48;;;;;;;4.07;3.20;;;;;;;;;;10404245;28;20058;-77
2022/07/20 15:18:51;;;;;;;3.33;3.03;;;;;;;;;;10418109;28;20049;-77
2022/07/20 15:23:52;;;;;;;4.18;3.03;;;;;;;;;;10416419;28;20072;-77
2022/07/20 15:28:52;;;;;;;3.30;3.00;;;;;;;;;;10415978;28;20501;-79
2022/07/20 15:33:53;;;;;;;4.67;3.70;;;;;;;;;;10419634;28;20122;-78
2022/07/20 15:38:53;;;;;;;3.80;3.50;;;;;;;;;;10428955;28;20061;-80
2022/07/20 15:43:56;;;;;;;4.50;3.45;;;;;;;;;;10440845;28;20080;-78
2022/07/20 15:48:57;;;;;;;4.88;3.80;;;;;;;;;;10431414;28;20050;-80
2022/07/20 15:54:13;;;;;;;3.55;3.28;;;;;;;;;;10432582;28;20054;-83
2022/07/20 15:59:14;;;;;;;4.60;3.55;;;;;;;;;;10432192;28;20084;-84
2022/07/20 16:04:15;;;;;;;4.10;3.70;;;;;;;;;;10466736;28;20037;-84
2022/07/20 16:09:17;;;;;;;4.80;3.70;;;;;;;;;;10455243;28;20264;-80
2022/07/20 16:14:18;;;;;;;7.35;3.83;;;;;;;;;;10438896;28;20053;-81
2022/07/20 16:19:19;;;;;;;5.40;3.65;;;;;;;;;;10450381;28;20038;-82
2022/07/20 16:24:20;;;;;;;4.05;3.70;;;;;;;;;;10442528;28;20058;-80
2022/07/20 16:29:21;;;;;;;4.07;3.67;;;;;;;;;;10438548;28;20041;-80
2022/07/20 16:34:22;;;;;;;4.45;4.05;;;;;;;;;;10455788;28;20072;-79
2022/07/20 16:39:25;;;;;;;4.47;4.03;;;;;;;;;;10419924;28;20044;-80
2022/07/20 16:44:26;;;;;;;6.53;4.40;;;;;;;;;;10431865;28;20342;-79
2022/07/20 16:49:27;;;;;;;7.63;6.05;;;;;;;;;;10430728;28;20046;-80
2022/07/20 16:54:31;;;;;;;5.45;4.60;;;;;;;;;;10433420;28;20068;-79
2022/07/20 16:59:34;;;;;;;5.47;4.97;;;;;;;;;;10434239;28;20033;-82
2022/07/20 17:04:36;;;;;;;5.90;5.30;;;;;;;;;;10451306;28;20045;-82
2022/07/20 17:09:37;;;;;;;11.50;9.40;;;;;;;;;;10429825;28;20045;-81
2022/07/20 17:14:40;;;;;;;10.38;7.03;;;;;;;;;;10440446;28;20054;-82
2022/07/20 17:19:41;;;;;;;5.50;4.85;;;;;;;;;;10439812;28;20041;-84
2022/07/20 17:24:42;;;;;;;5.68;5.18;;;;;;;;;;10444978;28;20104;-81
2022/07/20 17:29:43;;;;;;;5.00;4.50;;;;;;;;;;10442900;28;20404;-78
2022/07/20 17:34:43;;;;;;;7.87;6.47;;;;;;;;;;10444891;28;20053;-82
2022/07/20 17:39:44;;;;;;;5.78;5.22;;;;;;;;;;10464667;28;20029;-84
2022/07/20 17:44:44;;;;;;;4.78;4.30;;;;;;;;;;10443303;28;20037;-84
2022/07/20 17:49:46;;;;;;;4.70;4.30;;;;;;;;;;10442475;28;20041;-80
2022/07/20 17:54:46;;;;;;;5.90;5.20;;;;;;;;;;10438226;28;20054;-81
2022/07/20 17:59:46;;;;;;;6.03;5.53;;;;;;;;;;10432988;28;20071;-83
2022/07/20 18:04:47;;;;;;;10.27;9.40;;;;;;;;;;10426527;28;20142;-80
2022/07/20 18:09:47;;;;;;;10.20;9.20;;;;;;;;;;10428014;28;20288;-80
2022/07/20 18:14:49;;;;;;;8.23;7.53;;;;;;;;;;10434781;28;20049;-80
2022/07/20 18:19:53;;;;;;;8.30;7.50;;;;;;;;;;10437953;28;20045;-81
2022/07/20 18:24:54;;;;;;;6.97;6.30;;;;;;;;;;10440856;28;20036;-82
2022/07/20 18:29:57;;;;;;;8.02;6.40;;;;;;;;;;10438963;28;20202;-83
2022/07/20 18:35:02;;;;;;;7.22;6.53;;;;;;;;;;10423978;28;20503;-83
2022/07/20 18:40:05;;;;;;;9.30;8.32;;;;;;;;;;10432556;28;20496;-80
2022/07/20 18:45:06;;;;;;;9.15;8.25;;;;;;;;;;10426517;28;20041;-80
2022/07/20 18:50:06;;;;;;;;;;;;;;;;;;10421059;28;20029;-84
2022/07/20 18:55:07;;;;;;;9.27;8.37;;;;;;;;;;10435024;28;19969;-79
2022/07/20 19:00:07;;;;;;;;;;;;;;;;;;10426539;28;20056;-81
2022/07/20 19:05:09;;;;;;;7.10;6.32;;;;;;;;;;10430128;28;19917;-79
2022/07/20 19:10:10;;;;;;;;;;;;;;;;;;10426502;28;20053;-79
2022/07/20 19:15:14;;;;;;;7.85;6.53;;;;;;;;;;10446583;28;19924;-79
2022/07/20 19:20:15;;;;;;;10.27;7.43;;;;;;;;;;10427448;28;20045;-78
2022/07/20 19:25:16;;;;;;;8.27;7.47;;;;;;;;;;10428504;28;20068;-81
2022/07/20 19:30:20;;;;;;;17.80;16.08;;;;;;;;;;10433756;28;20053;-80
2022/07/20 19:35:27;;;;;;;11.82;8.85;;;;;;;;;;10467114;28;20080;-84
2022/07/20 19:40:28;;;;;;;10.43;9.38;;;;;;;;;;10477618;28;20038;-78
2022/07/20 19:45:28;;;;;;;10.10;8.85;;;;;;;;;;10430398;28;20582;-80
2022/07/20 19:50:30;;;;;;;14.00;10.13;;;;;;;;;;10439503;28;20040;-82
2022/07/20 19:55:31;;;;;;;11.27;9.23;;;;;;;;;;10438993;28;20064;-80
2022/07/20 20:00:34;;;;;;;14.73;10.52;;;;;;;;;;10455634;28;20521;-82
2022/07/20 20:05:34;;;;;;;13.10;9.73;;;;;;;;;;10431955;28;20147;-79
2022/07/20 20:10:37;;;;;;;11.70;10.17;;;;;;;;;;10434842;28;20049;-80
2022/07/20 20:15:43;;;;;;;12.30;11.10;;;;;;;;;;10421123;28;20049;-81
2022/07/20 20:20:45;;;;;;;34.63;14.35;;;;;;;;;;10424319;28;20397;-83
2022/07/20 20:25:45;;;;;;;27.05;13.93;;;;;;;;;;10448979;28;20033;-75
2022/07/20 20:30:52;;;;;;;26.97;13.70;;;;;;;;;;10447920;28;20075;-84
2022/07/20 20:35:52;;;;;;;26.02;12.60;;;;;;;;;;10437244;28;20543;-83
2022/07/20 20:40:53;;;;;;;17.13;12.10;;;;;;;;;;10432202;28;20041;-81
2022/07/20 20:46:00;;;;;;;21.95;12.52;;;;;;;;;;10423075;28;20051;-79
2022/07/20 20:51:01;;;;;;;17.20;13.50;;;;;;;;;;10441287;28;20073;-81
2022/07/20 20:56:01;;;;;;;18.20;13.73;;;;;;;;;;10445019;28;20223;-84
2022/07/20 21:01:01;;;;;;;14.00;12.57;;;;;;;;;;10458595;28;20056;-79
2022/07/20 21:06:02;;;;;;;14.30;12.90;;;;;;;;;;10450747;28;20058;-78
2022/07/20 21:11:03;;;;;;;14.43;12.57;;;;;;;;;;10454732;28;20057;-81
2022/07/20 21:16:04;;;;;;;15.35;12.63;;;;;;;;;;10445602;28;20058;-84
2022/07/20 21:21:06;;;;;;;17.25;12.85;;;;;;;;;;10431914;28;20037;-80
2022/07/20 21:26:07;;;;;;;;;;;;;;;;;;10432808;28;20049;-82
2022/07/20 21:31:08;;;;;;;12.77;11.45;;;;;;;;;;10449830;28;19928;-79
2022/07/20 21:36:08;;;;;;;12.43;10.43;;;;;;;;;;10458265;28;20150;-80
2022/07/20 21:41:09;;;;;;;12.17;9.90;;;;;;;;;;10455926;28;20053;-76
2022/07/20 21:46:09;;;;;;;12.90;10.50;;;;;;;;;;10431527;28;20491;-78
2022/07/20 21:51:09;;;;;;;13.63;9.50;;;;;;;;;;10416709;28;20135;-77
2022/07/20 21:56:10;;;;;;;9.97;8.97;;;;;;;;;;10423800;28;20053;-80
2022/07/20 22:01:14;;;;;;;9.87;8.17;;;;;;;;;;10409626;28;20109;-80
2022/07/20 22:06:15;;;;;;;7.38;6.50;;;;;;;;;;10418050;28;20061;-78
2022/07/20 22:11:15;;;;;;;11.00;7.40;;;;;;;;;;10412920;28;20140;-79
2022/07/20 22:16:17;;;;;;;9.63;6.57;;;;;;;;;;10421301;28;20568;-80
2022/07/20 22:21:19;;;;;;;9.93;7.80;;;;;;;;;;10421500;28;20067;-85
2022/07/20 22:26:19;;;;;;;9.02;8.10;;;;;;;;;;10421870;28;20053;-83
2022/07/20 22:31:20;;;;;;;8.47;7.67;;;;;;;;;;10421009;28;20044;-80
2022/07/20 22:36:21;;;;;;;8.97;8.07;;;;;;;;;;10413745;28;20061;-80
2022/07/20 22:41:22;;;;;;;7.22;6.60;;;;;;;;;;10414690;28;20048;-81
2022/07/20 22:46:22;;;;;;;7.97;5.73;;;;;;;;;;10416449;28;20053;-79
2022/07/20 22:51:23;;;;;;;8.60;6.32;;;;;;;;;;10415673;28;20552;-79
2022/07/20 22:56:23;;;;;;;7.00;5.40;;;;;;;;;;10418519;28;24283;-78
2022/07/20 23:01:23;;;;;;;5.10;4.70;;;;;;;;;;10412556;28;20854;-76
2022/07/20 23:06:24;;;;;;;7.23;5.40;;;;;;;;;;10405540;28;20048;-79
2022/07/20 23:11:24;;;;;;;7.00;5.30;;;;;;;;;;10413294;28;20333;-79
2022/07/20 23:16:25;;;;;;;6.50;5.30;;;;;;;;;;10415893;28;20128;-81
2022/07/20 23:21:26;;;;;;;5.28;4.78;;;;;;;;;;10412192;28;20437;-79
2022/07/20 23:26:26;;;;;;;5.57;5.07;;;;;;;;;;10416152;28;20550;-78
2022/07/20 23:31:28;;;;;;;5.45;4.82;;;;;;;;;;10432423;28;20097;-79
2022/07/20 23:36:30;;;;;;;5.22;4.80;;;;;;;;;;10456606;28;20107;-79
2022/07/20 23:41:30;;;;;;;5.95;5.43;;;;;;;;;;10448855;28;20136;-79
2022/07/20 23:46:31;;;;;;;5.38;4.85;;;;;;;;;;10470511;28;20084;-79
2022/07/20 23:51:31;;;;;;;5.40;4.90;;;;;;;;;;10424716;28;20106;-79
2022/07/20 23:56:33;;;;;;;7.32;5.05;;;;;;;;;;10413506;28;20046;-79
